Clarksburg, Massachusetts
Current Conditions -  °F | °C
As of 6:52 AM on Thursday 23 Oct 2014 (Local Time) from KAQW Reporting Station
Moderate Rain Moderate Rain  
Wind Chill: 40°   Ceiling: 2700
Heat Index: 44°   Visibility: 2mi
Dew Point: 42°   Wind: 7mph
Humidity: 93%   Direction: 260°W
Pressure: 29.82"   Gusts: NA
Location:  42.6996°N, 73.0936°W
Report Text: KAQW 231052Z AUTO 26006KT 2SM RA BR FEW007 OVC027 07/06 A2982 RMK AO2 SLP102 P0023 T00670056
Loading
Personal Weather Stations






























Interactive Weather Map
Tropical Storm Tracking
New forecast layout! Learn more

10-Day Weather Forecast

Advertisements
Track Severe Weather on mobile